createdAt,value
2018-03-08T00:01:40.942Z,99.90
2018-03-08T00:04:08.389Z,99.90
2018-03-08T00:06:35.853Z,99.90
2018-03-08T00:09:03.303Z,99.90
2018-03-08T00:11:30.762Z,99.90
2018-03-08T00:13:58.218Z,99.90
2018-03-08T00:16:25.666Z,99.90
2018-03-08T00:18:53.122Z,99.90
2018-03-08T00:21:20.565Z,99.90
2018-03-08T00:23:48.027Z,99.90
2018-03-08T00:26:15.487Z,99.90
2018-03-08T00:28:42.938Z,99.90
2018-03-08T00:31:10.387Z,99.90
2018-03-08T00:33:37.842Z,99.90
2018-03-08T00:36:05.303Z,99.90
2018-03-08T00:38:32.741Z,99.90
2018-03-08T00:41:00.961Z,99.90
2018-03-08T00:43:28.414Z,99.90
2018-03-08T00:45:55.875Z,99.90
2018-03-08T00:48:23.323Z,99.90
2018-03-08T00:50:50.777Z,99.90
2018-03-08T00:53:18.226Z,99.90
2018-03-08T00:55:45.678Z,99.90
2018-03-08T00:58:13.126Z,99.90
2018-03-08T01:00:40.582Z,99.90
2018-03-08T01:03:08.031Z,99.90
2018-03-08T01:05:36.257Z,99.90
2018-03-08T01:08:03.710Z,99.90
2018-03-08T01:10:31.170Z,99.90
2018-03-08T01:12:58.621Z,99.90
2018-03-08T01:15:26.086Z,99.90
2018-03-08T01:17:53.574Z,99.90
2018-03-08T01:20:20.985Z,99.90
2018-03-08T01:22:48.426Z,99.90
2018-03-08T01:25:15.898Z,99.90
2018-03-08T01:27:43.353Z,99.90
2018-03-08T01:30:10.806Z,99.90
2018-03-08T01:32:39.022Z,99.90
2018-03-08T01:35:06.478Z,99.90
2018-03-08T01:37:33.926Z,99.90
2018-03-08T01:40:01.397Z,99.90
2018-03-08T01:42:28.842Z,99.90
2018-03-08T01:44:56.286Z,99.90
2018-03-08T01:47:23.737Z,99.90
2018-03-08T01:49:51.181Z,99.90
2018-03-08T01:52:18.633Z,99.90
2018-03-08T01:54:46.088Z,99.90
2018-03-08T01:57:13.533Z,99.90
2018-03-08T01:59:40.978Z,99.90
2018-03-08T02:02:08.439Z,99.90
2018-03-08T02:04:35.889Z,99.90
2018-03-08T02:07:03.345Z,99.90
2018-03-08T02:09:30.793Z,99.90
2018-03-08T02:11:59.017Z,99.90
2018-03-08T02:14:26.469Z,99.90
2018-03-08T02:16:53.922Z,99.90
2018-03-08T02:19:21.368Z,99.90
2018-03-08T02:21:48.826Z,99.90
2018-03-08T02:24:16.279Z,99.90
2018-03-08T02:26:43.735Z,99.90
2018-03-08T02:29:11.183Z,99.90
2018-03-08T02:31:38.661Z,99.90
2018-03-08T02:34:06.108Z,99.90
2018-03-08T02:36:33.557Z,99.90
2018-03-08T02:39:01.019Z,99.90
2018-03-08T02:41:28.469Z,99.90
2018-03-08T02:43:55.913Z,99.90
2018-03-08T02:46:23.366Z,99.90
2018-03-08T02:48:50.813Z,99.90
2018-03-08T02:51:18.270Z,99.90
2018-03-08T02:53:46.482Z,99.90
2018-03-08T02:56:13.941Z,99.90
2018-03-08T02:58:41.394Z,99.90
2018-03-08T03:01:08.838Z,99.90
2018-03-08T03:03:36.344Z,99.90
2018-03-08T03:06:03.788Z,99.90
2018-03-08T03:08:31.237Z,99.90
2018-03-08T03:10:58.689Z,99.90
2018-03-08T03:13:26.141Z,99.90
2018-03-08T03:15:53.585Z,99.90
2018-03-08T03:18:21.045Z,99.90
2018-03-08T03:20:48.487Z,99.90
2018-03-08T03:23:15.941Z,99.90
2018-03-08T03:25:43.408Z,99.90
2018-03-08T03:28:10.870Z,99.90
2018-03-08T03:30:38.324Z,99.90
2018-03-08T03:33:05.781Z,99.90
2018-03-08T03:35:33.235Z,99.90
2018-03-08T03:38:00.695Z,99.90
2018-03-08T03:40:28.146Z,99.90
2018-03-08T03:42:55.614Z,99.90
2018-03-08T03:45:23.057Z,99.90
2018-03-08T03:47:50.532Z,99.90
2018-03-08T03:50:17.990Z,99.90
2018-03-08T03:52:45.451Z,99.90
2018-03-08T03:55:12.906Z,99.90
2018-03-08T03:57:40.375Z,99.90
2018-03-08T04:00:07.825Z,99.90
2018-03-08T04:02:35.291Z,99.90
2018-03-08T04:05:02.759Z,99.90
2018-03-08T04:07:31.017Z,99.90
2018-03-08T04:09:58.489Z,99.90
2018-03-08T04:12:25.943Z,99.90
2018-03-08T04:14:53.410Z,99.90
2018-03-08T04:17:21.633Z,99.90
2018-03-08T04:19:49.090Z,99.90
2018-03-08T04:22:16.558Z,99.90
2018-03-08T04:24:44.012Z,99.90
2018-03-08T04:27:11.473Z,99.90
2018-03-08T04:29:38.934Z,99.90
2018-03-08T04:32:06.386Z,99.90
2018-03-08T04:34:33.850Z,99.90
2018-03-08T04:37:01.301Z,99.90
2018-03-08T04:39:28.768Z,99.90
2018-03-08T04:41:56.219Z,99.90
2018-03-08T04:44:23.679Z,99.90
2018-03-08T04:46:51.132Z,99.90
2018-03-08T04:49:18.596Z,99.90
2018-03-08T04:51:46.051Z,99.90
2018-03-08T04:54:13.505Z,99.90
2018-03-08T04:56:40.961Z,99.90
2018-03-08T04:59:08.418Z,99.90
2018-03-08T05:01:35.917Z,99.90
2018-03-08T05:04:03.399Z,99.90
2018-03-08T05:06:30.853Z,99.90
2018-03-08T05:08:58.309Z,99.90
2018-03-08T05:11:26.610Z,99.90
2018-03-08T05:13:54.071Z,99.90
2018-03-08T05:16:21.527Z,99.90
2018-03-08T05:18:48.983Z,99.90
2018-03-08T05:21:16.467Z,99.90
2018-03-08T05:23:43.945Z,99.90
2018-03-08T05:26:12.167Z,99.90
2018-03-08T05:28:40.578Z,99.90
2018-03-08T05:31:08.038Z,99.90
2018-03-08T05:33:35.506Z,99.90
2018-03-08T05:36:03.727Z,99.90
2018-03-08T05:38:31.177Z,99.90
2018-03-08T05:40:58.631Z,99.90
2018-03-08T05:43:26.087Z,99.90
2018-03-08T05:45:53.542Z,99.90
2018-03-08T05:48:23.026Z,99.90
2018-03-08T05:50:51.659Z,99.90
2018-03-08T05:53:19.142Z,99.90
2018-03-08T05:55:47.371Z,99.90
2018-03-08T05:58:14.813Z,99.90
2018-03-08T06:00:42.367Z,99.90
2018-03-08T06:03:09.817Z,99.90
2018-03-08T06:05:37.266Z,99.90
2018-03-08T06:08:04.712Z,99.90
2018-03-08T06:10:32.174Z,99.90
2018-03-08T06:13:00.571Z,99.90
2018-03-08T06:15:29.012Z,99.90
2018-03-08T06:17:56.458Z,99.90
2018-03-08T06:20:23.938Z,99.90
2018-03-08T06:22:52.171Z,99.90
2018-03-08T06:25:19.613Z,99.90
2018-03-08T06:27:47.126Z,99.90
2018-03-08T06:30:15.361Z,99.90
2018-03-08T06:49:28.924Z,99.90
2018-03-08T06:54:48.806Z,99.90
2018-03-08T06:57:16.415Z,99.90
2018-03-08T06:59:44.095Z,99.90
2018-03-08T07:02:11.567Z,99.90
2018-03-08T07:04:39.031Z,99.90
2018-03-08T07:07:06.519Z,99.90
2018-03-08T07:09:33.996Z,99.90
2018-03-08T07:12:02.241Z,99.90
2018-03-08T07:14:29.708Z,99.90
2018-03-08T07:16:57.211Z,99.90
2018-03-08T07:19:24.683Z,99.90
2018-03-08T07:21:52.154Z,99.90
2018-03-08T07:24:20.327Z,99.90
2018-03-08T07:26:47.803Z,99.90
2018-03-08T07:29:15.279Z,99.90
2018-03-08T07:31:43.537Z,99.90
2018-03-08T07:34:11.011Z,99.90
2018-03-08T07:36:39.244Z,99.90
2018-03-08T07:39:06.713Z,99.90
2018-03-08T07:41:34.166Z,99.90
2018-03-08T07:44:01.645Z,99.90
2018-03-08T07:46:29.109Z,99.90
2018-03-08T07:48:57.357Z,99.90
2018-03-08T07:51:24.846Z,99.90
2018-03-08T07:53:53.094Z,99.90
2018-03-08T07:56:20.567Z,99.90
2018-03-08T07:58:48.819Z,99.90
2018-03-08T08:01:16.303Z,99.90
2018-03-08T08:03:43.806Z,99.90
2018-03-08T08:06:23.057Z,99.90
2018-03-08T08:09:02.356Z,99.90
2018-03-08T08:11:29.839Z,99.90
2018-03-08T08:13:57.318Z,99.90
2018-03-08T08:16:24.935Z,99.90
2018-03-08T08:18:52.453Z,99.90
2018-03-08T08:21:19.921Z,99.90
2018-03-08T08:23:48.166Z,99.90
2018-03-08T08:26:15.638Z,99.90
2018-03-08T08:28:43.628Z,99.90
2018-03-08T08:31:11.850Z,99.90
2018-03-08T08:33:39.345Z,99.90
2018-03-08T08:36:07.591Z,99.90
2018-03-08T08:38:35.624Z,99.90
2018-03-08T08:41:03.112Z,99.90
2018-03-08T08:43:30.608Z,99.90
2018-03-08T08:45:58.065Z,99.90
2018-03-08T08:48:25.544Z,99.90
2018-03-08T08:50:53.019Z,99.90
2018-03-08T08:53:20.482Z,99.90
2018-03-08T08:55:47.962Z,99.90
2018-03-08T08:58:15.435Z,99.90
2018-03-08T09:00:44.691Z,99.90
2018-03-08T09:03:12.159Z,99.90
2018-03-08T09:05:39.627Z,99.90
2018-03-08T09:08:07.098Z,99.90
2018-03-08T09:10:34.582Z,99.90
2018-03-08T09:13:02.820Z,99.90
2018-03-08T09:15:30.336Z,99.90
2018-03-08T09:17:57.806Z,99.90
2018-03-08T09:20:25.275Z,99.90
2018-03-08T09:22:53.507Z,99.90
2018-03-08T09:25:21.003Z,99.90
2018-03-08T09:27:48.481Z,99.90
2018-03-08T09:30:15.962Z,99.90
2018-03-08T09:32:44.236Z,99.90
2018-03-08T09:35:12.487Z,99.90
2018-03-08T09:37:39.953Z,99.90
2018-03-08T09:40:07.435Z,99.90
2018-03-08T09:42:35.682Z,99.90
2018-03-08T09:45:03.169Z,99.90
2018-03-08T09:47:33.379Z,99.90
2018-03-08T09:50:01.138Z,99.90
2018-03-08T09:52:28.614Z,99.90
2018-03-08T09:54:56.869Z,99.90
2018-03-08T09:57:25.102Z,99.90
2018-03-08T09:59:54.275Z,99.90
2018-03-08T10:02:21.747Z,99.90
2018-03-08T10:04:49.223Z,99.90
2018-03-08T10:07:16.679Z,99.90
2018-03-08T10:09:44.150Z,99.90
2018-03-08T10:12:11.679Z,99.90
2018-03-08T10:14:39.149Z,99.90
2018-03-08T10:17:06.617Z,99.90
2018-03-08T10:19:34.765Z,99.90
2018-03-08T10:22:02.251Z,99.90
2018-03-08T10:24:29.713Z,99.90
2018-03-08T10:26:58.019Z,99.90
2018-03-08T10:29:25.543Z,99.90
2018-03-08T10:31:53.024Z,99.90
2018-03-08T10:34:20.486Z,99.90
2018-03-08T10:36:48.742Z,99.90
2018-03-08T10:44:11.936Z,99.90
2018-03-08T10:46:39.416Z,99.90
2018-03-08T10:49:06.932Z,99.90
2018-03-08T10:51:34.413Z,99.90
2018-03-08T10:54:02.908Z,99.90
2018-03-08T10:56:30.378Z,99.90
2018-03-08T10:58:57.839Z,99.90
2018-03-08T11:01:26.122Z,99.90
2018-03-08T11:03:56.761Z,99.90
2018-03-08T11:06:29.225Z,99.90
2018-03-08T11:08:56.705Z,99.90
2018-03-08T11:11:24.215Z,99.90
2018-03-08T11:13:52.449Z,99.90
2018-03-08T11:16:19.940Z,99.90
2018-03-08T11:21:35.784Z,99.90
2018-03-08T11:24:36.144Z,99.90
2018-03-08T11:27:03.627Z,99.90
2018-03-08T11:29:31.910Z,99.90
2018-03-08T11:32:00.168Z,99.90
2018-03-08T11:34:27.645Z,99.90
2018-03-08T11:36:55.899Z,99.90
2018-03-08T11:39:23.397Z,99.90
2018-03-08T11:41:50.881Z,99.90
2018-03-08T11:44:19.390Z,99.90
2018-03-08T11:46:46.863Z,99.90
2018-03-08T11:49:15.127Z,99.90
2018-03-08T11:51:43.666Z,99.90
2018-03-08T11:54:11.126Z,99.90
2018-03-08T11:56:41.471Z,99.90
2018-03-08T11:59:08.951Z,99.00
2018-03-08T12:01:37.586Z,96.50
2018-03-08T12:04:05.050Z,96.50
2018-03-08T12:06:32.527Z,95.80
2018-03-08T12:09:00.022Z,95.00
2018-03-08T12:11:29.474Z,93.50
2018-03-08T12:13:56.946Z,93.40
2018-03-08T12:16:24.431Z,93.10
2018-03-08T12:18:54.532Z,93.20
2018-03-08T12:21:22.027Z,93.10
2018-03-08T12:23:49.543Z,91.50
2018-03-08T12:26:16.998Z,91.30
2018-03-08T12:28:44.472Z,92.20
2018-03-08T12:31:13.662Z,91.50
2018-03-08T12:33:41.136Z,91.40
2018-03-08T12:36:09.423Z,90.40
2018-03-08T12:38:36.891Z,90.40
2018-03-08T12:41:04.451Z,86.00
2018-03-08T12:43:31.939Z,82.10
2018-03-08T12:45:59.687Z,81.00
2018-03-08T12:48:27.156Z,82.80
2018-03-08T12:50:54.634Z,79.40
2018-03-08T12:53:22.135Z,78.00
2018-03-08T12:55:49.617Z,76.50
2018-03-08T12:58:17.088Z,77.10
2018-03-08T13:00:44.603Z,79.20
2018-03-08T13:03:12.087Z,80.70
2018-03-08T13:05:39.550Z,78.60
2018-03-08T13:08:07.042Z,77.70
2018-03-08T13:10:34.533Z,75.70
2018-03-08T13:13:01.974Z,74.70
2018-03-08T13:15:30.799Z,71.40
2018-03-08T13:17:58.299Z,71.30
2018-03-08T13:20:25.786Z,72.30
2018-03-08T13:22:53.257Z,72.10
2018-03-08T13:25:20.751Z,68.80
2018-03-08T13:27:48.242Z,67.90
2018-03-08T13:30:16.469Z,68.70
2018-03-08T13:32:46.776Z,68.70
2018-03-08T13:35:14.246Z,69.20
2018-03-08T13:37:41.720Z,69.40
2018-03-08T13:40:09.195Z,66.20
2018-03-08T13:42:36.707Z,60.50
2018-03-08T13:45:04.191Z,59.40
2018-03-08T13:47:31.655Z,59.30
2018-03-08T13:49:59.133Z,60.00
2018-03-08T13:52:26.649Z,57.80
2018-03-08T13:54:54.106Z,58.50
2018-03-08T13:57:21.606Z,57.20
2018-03-08T13:59:49.847Z,58.30
2018-03-08T14:02:17.345Z,58.20
2018-03-08T14:04:45.055Z,58.40
2018-03-08T14:07:12.538Z,58.60
2018-03-08T14:09:40.046Z,58.70
2018-03-08T14:12:07.522Z,59.50
2018-03-08T14:14:35.575Z,60.10
2018-03-08T14:17:03.053Z,59.50
2018-03-08T14:19:30.547Z,60.00
2018-03-08T14:21:58.031Z,60.30
2018-03-08T14:24:25.526Z,61.80
2018-03-08T14:26:52.993Z,61.60
2018-03-08T14:29:20.484Z,60.40
2018-03-08T14:31:48.771Z,61.40
2018-03-08T14:34:17.039Z,61.00
2018-03-08T14:36:45.279Z,61.40
2018-03-08T14:39:12.774Z,61.30
2018-03-08T14:41:41.023Z,61.60
2018-03-08T14:44:08.513Z,61.60
2018-03-08T14:46:36.012Z,61.80
2018-03-08T14:49:03.479Z,61.80
2018-03-08T14:51:30.973Z,63.30
2018-03-08T14:53:59.193Z,63.70
2018-03-08T14:56:27.537Z,63.60
2018-03-08T14:58:54.988Z,63.60
2018-03-08T15:01:23.237Z,64.10
2018-03-08T15:03:50.794Z,64.00
2018-03-08T15:06:18.304Z,64.40
2018-03-08T15:08:45.791Z,65.10
2018-03-08T15:11:13.879Z,63.60
2018-03-08T15:13:41.386Z,64.60
2018-03-08T15:16:08.868Z,65.00
2018-03-08T15:18:36.339Z,64.90
2018-03-08T15:21:03.828Z,65.70
2018-03-08T15:23:32.081Z,65.30
2018-03-08T15:25:59.575Z,65.30
2018-03-08T15:28:27.055Z,65.90
2018-03-08T15:30:54.560Z,62.80
2018-03-08T15:33:22.051Z,61.80
2018-03-08T15:35:49.542Z,56.20
2018-03-08T15:38:17.031Z,56.20
2018-03-08T15:40:44.517Z,55.80
2018-03-08T15:43:12.796Z,55.80
2018-03-08T15:45:41.098Z,55.20
2018-03-08T15:48:08.563Z,55.20
2018-03-08T15:50:36.055Z,55.20
2018-03-08T15:53:03.557Z,55.20
2018-03-08T15:55:31.049Z,55.40
2018-03-08T15:57:58.522Z,55.20
2018-03-08T16:00:26.034Z,55.30
2018-03-08T16:02:53.526Z,55.90
2018-03-08T16:05:21.016Z,55.80
2018-03-08T16:08:00.994Z,56.00
2018-03-08T16:10:36.371Z,56.00
2018-03-08T16:13:03.843Z,56.60
2018-03-08T16:15:31.356Z,56.90
2018-03-08T16:17:58.838Z,57.10
2018-03-08T16:20:26.319Z,57.30
2018-03-08T16:22:54.602Z,56.90
2018-03-08T16:25:22.090Z,56.80
2018-03-08T16:27:49.567Z,57.50
2018-03-08T16:30:17.047Z,57.50
2018-03-08T16:32:44.530Z,57.90
2018-03-08T16:35:12.066Z,58.20
2018-03-08T16:37:39.607Z,59.10
2018-03-08T16:40:07.098Z,59.20
2018-03-08T16:42:34.568Z,59.00
2018-03-08T16:45:02.851Z,59.70
2018-03-08T16:47:31.035Z,59.70
2018-03-08T16:49:59.299Z,60.40
2018-03-08T16:52:27.560Z,60.70
2018-03-08T16:54:55.839Z,61.30
2018-03-08T16:57:24.164Z,61.70
2018-03-08T16:59:51.590Z,61.70
2018-03-08T17:02:19.834Z,64.80
2018-03-08T17:04:47.354Z,65.70
2018-03-08T17:07:14.871Z,67.80
2018-03-08T17:09:42.335Z,69.90
2018-03-08T17:12:10.576Z,72.70
2018-03-08T17:14:38.079Z,72.70
2018-03-08T17:17:05.528Z,73.80
2018-03-08T17:19:33.032Z,75.50
2018-03-08T17:22:00.518Z,77.10
2018-03-08T17:24:28.811Z,80.10
2018-03-08T17:26:56.295Z,80.10
2018-03-08T17:29:27.336Z,81.10
2018-03-08T17:31:54.872Z,82.40
2018-03-08T17:34:23.175Z,84.40
2018-03-08T17:36:51.176Z,84.20
2018-03-08T17:39:20.290Z,85.50
2018-03-08T17:41:47.917Z,86.60
2018-03-08T17:44:16.213Z,87.60
2018-03-08T17:46:43.711Z,88.70
2018-03-08T17:49:11.187Z,90.00
2018-03-08T17:51:38.657Z,90.40
2018-03-08T17:54:06.129Z,90.90
2018-03-08T17:56:33.631Z,91.40
2018-03-08T17:59:01.694Z,91.60
2018-03-08T18:01:33.296Z,91.90
2018-03-08T18:04:02.033Z,91.90
2018-03-08T18:06:29.485Z,92.30
2018-03-08T18:08:56.985Z,92.60
2018-03-08T18:11:24.515Z,93.00
2018-03-08T18:13:51.969Z,93.80
2018-03-08T18:16:19.434Z,94.00
2018-03-08T18:18:46.890Z,94.10
2018-03-08T18:21:14.341Z,94.40
2018-03-08T18:23:41.812Z,94.50
2018-03-08T18:26:09.266Z,95.10
2018-03-08T18:28:39.075Z,95.00
2018-03-08T18:31:06.570Z,95.80
2018-03-08T18:33:34.064Z,95.90
2018-03-08T18:36:01.518Z,97.00
2018-03-08T18:38:28.973Z,97.30
2018-03-08T18:40:56.422Z,97.70
2018-03-08T18:43:23.881Z,98.10
2018-03-08T18:45:51.341Z,98.50
2018-03-08T18:48:18.797Z,99.00
2018-03-08T18:50:46.261Z,99.40
2018-03-08T18:53:13.710Z,99.70
2018-03-08T18:55:41.172Z,99.90
2018-03-08T18:58:20.510Z,99.90
2018-03-08T19:00:47.962Z,99.90
2018-03-08T19:03:16.207Z,99.90
2018-03-08T19:05:43.665Z,99.90
2018-03-08T19:08:11.129Z,99.90
2018-03-08T19:10:38.604Z,99.90
2018-03-08T19:13:06.067Z,99.90
2018-03-08T19:15:33.531Z,99.90
2018-03-08T19:18:01.759Z,99.90
2018-03-08T19:20:29.213Z,99.90
2018-03-08T19:22:56.708Z,99.90
2018-03-08T19:25:24.154Z,99.90
2018-03-08T19:27:51.617Z,99.90
2018-03-08T19:30:19.106Z,99.90
2018-03-08T19:32:46.558Z,99.90
2018-03-08T19:35:14.018Z,99.90
2018-03-08T19:37:41.481Z,99.90
2018-03-08T19:40:08.942Z,99.90
2018-03-08T19:42:36.406Z,99.90
2018-03-08T19:45:03.866Z,99.90
2018-03-08T19:47:31.325Z,99.90
2018-03-08T19:49:58.790Z,99.90
2018-03-08T19:52:26.249Z,99.90
2018-03-08T19:54:53.714Z,99.90
2018-03-08T19:57:21.179Z,99.90
2018-03-08T19:59:48.648Z,99.90
2018-03-08T20:02:16.183Z,99.90
2018-03-08T20:04:43.722Z,99.90
2018-03-08T20:07:11.214Z,99.90
2018-03-08T20:09:38.672Z,99.90
2018-03-08T20:12:06.122Z,99.90
2018-03-08T20:14:33.602Z,99.90
2018-03-08T20:17:01.075Z,99.50
2018-03-08T20:19:29.410Z,99.30
2018-03-08T20:21:56.875Z,99.30
2018-03-08T20:24:24.338Z,99.00
2018-03-08T20:26:51.798Z,98.60
2018-03-08T20:29:19.354Z,98.40
2018-03-08T20:31:46.809Z,98.20
2018-03-08T20:34:14.271Z,97.90
2018-03-08T20:36:41.741Z,97.50
2018-03-08T20:39:09.983Z,97.70
2018-03-08T20:41:37.445Z,97.70
2018-03-08T20:44:04.906Z,97.60
2018-03-08T20:46:32.358Z,97.50
2018-03-08T20:48:59.825Z,97.60
2018-03-08T20:51:27.295Z,97.60
2018-03-08T20:53:55.514Z,97.30
2018-03-08T20:56:23.044Z,97.40
2018-03-08T20:58:50.491Z,97.20
2018-03-08T21:01:18.706Z,97.10
2018-03-08T21:03:46.158Z,97.10
2018-03-08T21:06:13.618Z,96.70
2018-03-08T21:08:41.072Z,96.70
2018-03-08T21:11:08.530Z,96.50
2018-03-08T21:13:36.010Z,96.80
2018-03-08T21:16:03.465Z,96.70
2018-03-08T21:18:30.906Z,96.50
2018-03-08T21:20:58.371Z,96.50
2018-03-08T21:23:25.821Z,96.60
2018-03-08T21:25:53.285Z,96.40
2018-03-08T21:28:20.782Z,96.30
2018-03-08T21:30:49.006Z,96.50
2018-03-08T21:33:16.463Z,96.40
2018-03-08T21:35:43.943Z,96.60
2018-03-08T21:38:11.390Z,96.50
2018-03-08T21:40:38.855Z,96.40
2018-03-08T21:43:06.304Z,96.30
2018-03-08T21:45:33.845Z,96.20
2018-03-08T21:48:01.435Z,96.20
2018-03-08T21:50:28.906Z,96.10
2018-03-08T21:52:56.370Z,95.80
2018-03-08T21:55:24.598Z,95.50
2018-03-08T21:57:52.052Z,95.50
2018-03-08T22:00:19.509Z,95.60
2018-03-08T22:02:46.968Z,95.70
2018-03-08T22:05:14.452Z,95.50
2018-03-08T22:07:41.950Z,95.40
2018-03-08T22:10:09.420Z,95.30
2018-03-08T22:12:36.901Z,95.00
2018-03-08T22:15:04.358Z,95.10
2018-03-08T22:17:31.817Z,95.70
2018-03-08T22:19:59.945Z,96.60
2018-03-08T22:22:27.926Z,96.40
2018-03-08T22:24:55.379Z,98.40
2018-03-08T22:27:22.852Z,99.90
2018-03-08T22:29:50.304Z,99.90
2018-03-08T22:32:17.766Z,99.90
2018-03-08T22:34:45.307Z,99.90
2018-03-08T22:37:12.761Z,99.90
2018-03-08T22:39:40.226Z,99.90
2018-03-08T22:42:07.687Z,99.90
2018-03-08T22:44:35.145Z,99.90
2018-03-08T22:47:03.286Z,99.90
2018-03-08T22:49:31.541Z,99.90
2018-03-08T22:51:58.997Z,99.90
2018-03-08T22:54:26.575Z,99.90
2018-03-08T22:56:54.172Z,99.90
2018-03-08T22:59:21.654Z,99.90
2018-03-08T23:02:06.971Z,99.90
2018-03-08T23:04:35.194Z,99.90
2018-03-08T23:07:02.649Z,99.90
2018-03-08T23:09:30.900Z,99.90
2018-03-08T23:11:58.374Z,99.90
2018-03-08T23:14:25.846Z,99.90
2018-03-08T23:16:53.325Z,99.90
2018-03-08T23:19:20.817Z,99.90
2018-03-08T23:21:48.273Z,99.90
2018-03-08T23:24:15.750Z,99.90
2018-03-08T23:26:43.200Z,99.90
2018-03-08T23:29:10.666Z,99.90
2018-03-08T23:31:38.124Z,99.90
2018-03-08T23:34:05.582Z,99.90
2018-03-08T23:36:33.035Z,99.90
2018-03-08T23:39:00.484Z,99.90
2018-03-08T23:41:28.770Z,99.90
2018-03-08T23:43:59.080Z,99.90
2018-03-08T23:46:26.482Z,99.90
2018-03-08T23:48:53.946Z,99.90
2018-03-08T23:51:21.389Z,99.90
2018-03-08T23:53:49.209Z,99.90
2018-03-08T23:56:16.657Z,99.90
2018-03-08T23:58:44.123Z,99.90
